Time;durP1;ratioP1;P1;durP2;ratioP2;P2;SDS_P1;SDS_P2;PMS_P1;PMS_P2;Temp;Humidity;BMP_temperature;BMP_pressure;BME280_temperature;BME280_humidity;BME280_pressure;Samples;Min_cycle;Max_cycle;Signal;HPM_P1;HPM_P2
2023/12/19 00:00:05;;;;;;;;;38.00;25.00;;;;;6.18;70.25;102504.97;4924519;28;45599;-71
2023/12/19 00:02:30;;;;;;;;;33.50;23.25;;;;;6.22;70.33;102500.69;4952438;28;45493;-69
2023/12/19 00:04:55;;;;;;;;;26.50;22.50;;;;;6.24;70.37;102499.00;4943008;28;73973;-70
2023/12/19 00:07:21;;;;;;;;;32.75;21.00;;;;;6.27;70.35;102486.06;4943872;28;69705;-70
2023/12/19 00:09:46;;;;;;;;;34.00;24.75;;;;;6.26;70.33;102472.16;4938933;28;67802;-70
2023/12/19 00:12:11;;;;;;;;;33.75;25.00;;;;;6.25;70.15;102467.84;4941504;28;56044;-70
2023/12/19 00:14:37;;;;;;;;;28.50;22.25;;;;;6.25;70.58;102469.53;4943083;28;66345;-70
2023/12/19 00:17:02;;;;;;;;;30.00;23.00;;;;;6.23;71.31;102464.34;4940845;28;58850;-70
2023/12/19 00:19:27;;;;;;;;;37.25;23.00;;;;;6.24;70.66;102457.41;4939252;28;45804;-70
2023/12/19 00:21:53;;;;;;;;;26.00;20.00;;;;;6.22;70.78;102456.50;4936969;28;69213;-70
2023/12/19 00:24:18;;;;;;;;;31.75;20.00;;;;;6.19;71.01;102441.72;4939592;28;65593;-71
2023/12/19 00:26:43;;;;;;;;;29.25;20.25;;;;;6.18;72.04;102437.38;4942874;28;67355;-71
2023/12/19 00:29:09;;;;;;;;;29.00;19.50;;;;;6.17;71.12;102438.22;4941765;28;45263;-70
2023/12/19 00:31:34;;;;;;;;;28.00;22.75;;;;;6.18;71.18;102439.06;4922531;28;45679;-70
2023/12/19 00:33:59;;;;;;;;;26.25;19.00;;;;;6.19;71.21;102439.09;4938375;28;45560;-71
2023/12/19 00:36:25;;;;;;;;;23.25;17.75;;;;;6.18;71.15;102437.38;4940462;28;45474;-70
2023/12/19 00:38:50;;;;;;;;;25.00;18.50;;;;;6.19;71.02;102438.25;4943164;28;45533;-70
2023/12/19 00:41:16;;;;;;;;;26.25;20.75;;;;;6.18;70.95;102413.97;4939207;28;45570;-70
2023/12/19 00:43:43;;;;;;;;;34.00;24.25;;;;;6.22;72.38;102415.78;4939902;28;45469;-71
2023/12/19 00:46:08;;;;;;;;;35.75;21.00;;;;;6.23;71.22;102411.44;4939311;28;45413;-70
2023/12/19 00:48:33;;;;;;;;;23.00;21.00;;;;;6.21;71.01;102410.53;4939975;28;66420;-71
2023/12/19 00:50:59;;;;;;;;;33.00;24.25;;;;;6.23;71.02;102414.94;4922271;28;71600;-70
2023/12/19 00:53:24;;;;;;;;;30.50;22.50;;;;;6.25;71.06;102415.84;4937352;28;70043;-69
2023/12/19 00:55:49;;;;;;;;;32.00;24.25;;;;;6.25;70.67;102421.03;4940922;28;69294;-70
2023/12/19 00:58:15;;;;;;;;;30.00;20.00;;;;;6.26;71.05;102416.69;4942839;28;65096;-70
2023/12/19 01:00:40;;;;;;;;;34.75;23.75;;;;;6.29;70.80;102421.97;4940539;28;45414;-70
2023/12/19 01:03:05;;;;;;;;;35.25;25.00;;;;;6.31;70.74;102420.25;4937900;28;71439;-70
2023/12/19 01:05:31;;;;;;;;;26.50;22.50;;;;;6.34;70.81;102422.03;4939403;28;45584;-70
2023/12/19 01:07:56;;;;;;;;;24.75;21.50;;;;;6.35;70.70;102423.78;4940388;28;45422;-69
2023/12/19 01:10:22;;;;;;;;;31.25;21.00;;;;;6.38;70.82;102423.84;4936937;28;65609;-70
2023/12/19 01:12:47;;;;;;;;;29.75;23.25;;;;;6.38;70.74;102423.84;4937178;28;71661;-70
2023/12/19 01:15:13;;;;;;;;;24.75;18.75;;;;;6.39;70.62;102433.38;4933007;28;45421;-70
2023/12/19 01:17:38;;;;;;;;;28.25;15.25;;;;;6.39;70.65;102441.19;4937864;28;46466;-70
2023/12/19 01:20:04;;;;;;;;;32.50;19.00;;;;;6.39;70.75;102455.09;4941124;28;56279;-70
2023/12/19 01:22:29;;;;;;;;;25.50;20.75;;;;;6.41;70.78;102453.38;4924218;28;46135;-69
2023/12/19 01:24:54;;;;;;;;;31.25;22.50;;;;;6.43;70.74;102456.88;4937143;28;50123;-70
2023/12/19 01:27:21;;;;;;;;;22.00;19.75;;;;;6.46;70.88;102458.66;4940295;28;68153;-70
2023/12/19 01:29:46;;;;;;;;;36.25;22.50;;;;;6.47;70.71;102448.28;4938306;28;45469;-70
2023/12/19 01:32:11;;;;;;;;;27.75;21.75;;;;;6.50;70.61;102431.88;4937968;28;46500;-70
2023/12/19 01:34:37;;;;;;;;;31.75;21.50;;;;;6.54;70.78;102431.06;4939651;28;71990;-70
2023/12/19 01:37:02;;;;;;;;;26.50;20.00;;;;;6.56;70.76;102434.56;4939103;28;45284;-72
2023/12/19 01:39:27;;;;;;;;;24.75;19.00;;;;;6.60;70.78;102422.47;4937882;28;45644;-70
2023/12/19 01:41:53;;;;;;;;;24.00;19.50;;;;;6.60;70.57;102415.53;4936667;28;60652;-70
2023/12/19 01:44:19;;;;;;;;;28.25;19.25;;;;;6.63;70.54;102419.94;4937761;28;61840;-69
2023/12/19 01:46:47;;;;;;;;;37.50;24.25;;;;;6.64;70.52;102406.97;4940656;28;45359;-70
2023/12/19 01:49:13;;;;;;;;;26.00;21.25;;;;;6.67;70.59;102403.53;4943356;28;45762;-70
2023/12/19 01:51:39;;;;;;;;;27.75;23.75;;;;;6.67;70.41;102385.31;4942479;28;46391;-68
2023/12/19 01:54:05;;;;;;;;;32.00;23.50;;;;;6.70;70.38;102397.50;4939684;28;45538;-70
2023/12/19 01:56:32;;;;;;;;;27.75;21.25;;;;;6.70;70.19;102418.31;4939033;28;65208;-70
2023/12/19 01:58:58;;;;;;;;;32.25;22.25;;;;;6.69;70.48;102396.63;4940200;28;45173;-71
2023/12/19 02:01:24;;;;;;;;;26.00;21.00;;;;;6.68;70.14;102412.22;4938275;28;45366;-70
2023/12/19 02:03:50;;;;;;;;;26.50;19.00;;;;;6.69;70.32;102408.75;4958000;28;55942;-69
2023/12/19 02:06:17;;;;;;;;;33.25;22.75;;;;;6.67;70.29;102411.31;4942855;28;60630;-70
2023/12/19 02:08:43;;;;;;;;;30.75;21.00;;;;;6.67;70.30;102413.06;4940271;28;45482;-70
2023/12/19 02:11:09;;;;;;;;;24.50;15.50;;;;;6.68;70.28;102401.81;4937957;28;72042;-70
2023/12/19 02:13:34;;;;;;;;;34.75;21.25;;;;;6.69;70.36;102404.41;4955546;28;61926;-71
2023/12/19 02:16:00;;;;;;;;;31.75;23.00;;;;;6.70;70.44;102413.13;4937959;28;64689;-71
2023/12/19 02:18:25;;;;;;;;;21.25;16.00;;;;;6.72;70.56;102414.03;4935176;28;45627;-71
2023/12/19 02:20:50;;;;;;;;;22.75;19.75;;;;;6.73;70.51;102415.75;4942028;28;75556;-70
2023/12/19 02:23:16;;;;;;;;;20.50;18.50;;;;;6.75;70.31;102422.75;4917606;28;45391;-70
2023/12/19 02:25:42;;;;;;;;;24.00;19.25;;;;;6.77;70.50;102420.19;4938273;28;45466;-70
2023/12/19 02:28:08;;;;;;;;;26.50;18.75;;;;;6.75;70.32;102401.06;4942131;28;45298;-70
2023/12/19 02:30:36;;;;;;;;;29.00;20.00;;;;;6.79;70.36;102406.31;4937942;28;46313;-70
2023/12/19 02:33:02;;;;;;;;;27.75;19.00;;;;;6.80;70.25;102409.81;4943739;28;45905;-70
2023/12/19 02:35:28;;;;;;;;;34.75;19.75;;;;;6.85;70.35;102408.13;4943946;28;45390;-70
2023/12/19 02:37:53;;;;;;;;;21.75;16.25;;;;;6.92;70.21;102409.13;4923966;28;45957;-70
2023/12/19 02:40:18;;;;;;;;;22.25;15.75;;;;;6.91;70.39;102404.78;4945382;28;52100;-70
2023/12/19 02:42:44;;;;;;;;;23.50;18.50;;;;;6.93;70.26;102393.53;4937306;28;45517;-70
2023/12/19 02:45:10;;;;;;;;;22.25;17.25;;;;;6.97;70.27;102395.31;4938824;28;58042;-71
2023/12/19 02:47:35;;;;;;;;;21.00;14.00;;;;;7.00;70.25;102397.09;4937356;28;47118;-71
2023/12/19 02:50:01;;;;;;;;;20.00;10.75;;;;;7.02;70.29;102377.16;4942389;28;50024;-70
2023/12/19 02:52:26;;;;;;;;;18.25;15.25;;;;;7.03;70.23;102377.19;4937536;28;45586;-70
2023/12/19 02:54:52;;;;;;;;;27.25;19.00;;;;;7.07;70.22;102380.72;4938635;28;45293;-70
2023/12/19 02:57:17;;;;;;;;;18.00;13.00;;;;;7.09;70.01;102371.19;4943196;28;71638;-70
2023/12/19 02:59:42;;;;;;;;;23.75;16.25;;;;;7.13;70.04;102364.28;4952384;28;67232;-71
2023/12/19 03:02:08;;;;;;;;;27.75;16.75;;;;;7.13;69.99;102359.97;4938276;28;74564;-70
2023/12/19 03:04:33;;;;;;;;;21.00;16.00;;;;;7.12;69.96;102360.84;4937152;28;45401;-71
2023/12/19 03:06:58;;;;;;;;;26.75;17.00;;;;;7.13;70.11;102367.75;4937196;28;50656;-70
2023/12/19 03:09:24;;;;;;;;;20.50;15.25;;;;;7.15;69.84;102370.41;4937427;28;75720;-69
2023/12/19 03:12:01;;;;;;;;;23.75;19.00;;;;;7.14;69.95;102366.94;4938531;28;45444;-71
2023/12/19 03:14:26;;;;;;;;;27.00;15.00;;;;;7.15;69.89;102363.47;4938870;28;46588;-71
2023/12/19 03:16:52;;;;;;;;;22.00;17.00;;;;;7.19;69.96;102374.81;4938789;28;64188;-71
2023/12/19 03:19:17;;;;;;;;;25.50;17.50;;;;;7.20;69.85;102376.53;4925096;28;75644;-71
2023/12/19 03:21:42;;;;;;;;;24.25;17.50;;;;;7.20;69.93;102363.53;4940192;28;54611;-70
2023/12/19 03:24:08;;;;;;;;;24.50;15.25;;;;;7.20;69.98;102340.97;4937634;28;69368;-70
2023/12/19 03:26:33;;;;;;;;;16.50;14.00;;;;;7.21;69.94;102327.09;4941058;28;58860;-70
2023/12/19 03:28:58;;;;;;;;;23.25;16.75;;;;;7.26;69.97;102331.47;4940928;28;75557;-70
2023/12/19 03:31:24;;;;;;;;;22.50;14.75;;;;;7.27;69.93;102343.66;4941034;28;72295;-71
2023/12/19 03:33:50;;;;;;;;;28.25;17.75;;;;;7.29;69.85;102336.72;4941999;28;54267;-70
2023/12/19 03:36:15;;;;;;;;;26.75;20.25;;;;;7.31;69.75;102338.50;4925759;28;45547;-70
2023/12/19 03:38:41;;;;;;;;;24.50;17.00;;;;;7.32;69.81;102340.25;4939295;28;72101;-71
2023/12/19 03:41:06;;;;;;;;;21.25;15.00;;;;;7.34;69.71;102329.84;4942164;28;46572;-71
2023/12/19 03:43:32;;;;;;;;;22.00;17.25;;;;;7.35;69.54;102329.88;4943675;28;68124;-71
2023/12/19 03:46:01;;;;;;;;;21.25;15.75;;;;;7.37;69.65;102329.91;4939862;28;45355;-69
2023/12/19 03:48:27;;;;;;;;;29.00;18.25;;;;;7.37;69.58;102342.91;4941182;28;45740;-71
2023/12/19 03:50:52;;;;;;;;;20.50;18.00;;;;;7.37;69.68;102342.91;4942212;28;45514;-70
2023/12/19 03:53:17;;;;;;;;;24.50;17.00;;;;;7.40;69.72;102338.63;4941181;28;47520;-70
2023/12/19 03:55:43;;;;;;;;;20.50;18.00;;;;;7.41;69.79;102323.84;4941627;28;48218;-69
2023/12/19 03:58:08;;;;;;;;;23.75;16.50;;;;;7.44;69.58;102330.81;4940250;28;45436;-70
2023/12/19 04:00:33;;;;;;;;;22.25;16.00;;;;;7.42;69.51;102320.41;4939095;28;65528;-71
2023/12/19 04:02:59;;;;;;;;;24.75;17.50;;;;;7.44;69.54;102321.28;4939738;28;65984;-69
2023/12/19 04:05:24;;;;;;;;;19.00;17.00;;;;;7.46;69.56;102319.59;4939601;28;64863;-69
2023/12/19 04:07:49;;;;;;;;;28.75;22.00;;;;;7.47;69.56;102318.75;4924190;28;59922;-69
2023/12/19 04:10:15;;;;;;;;;23.50;16.75;;;;;7.51;69.66;102304.88;4938960;28;45491;-69
2023/12/19 04:12:40;;;;;;;;;22.75;15.75;;;;;7.52;69.56;102298.78;4940075;28;55944;-69
2023/12/19 04:15:08;;;;;;;;;28.00;20.75;;;;;7.55;69.53;102283.19;4942249;28;45629;-69
2023/12/19 04:17:33;;;;;;;;;25.75;17.75;;;;;7.57;69.29;102270.19;4938271;28;45472;-69
2023/12/19 04:19:58;;;;;;;;;20.50;15.75;;;;;7.56;69.42;102265.84;4932007;28;57994;-69
2023/12/19 04:22:24;;;;;;;;;25.75;19.00;;;;;7.54;69.37;102257.13;4940113;28;68296;-70
2023/12/19 04:24:49;;;;;;;;;32.50;21.00;;;;;7.53;69.32;102250.19;4941435;28;45288;-70
2023/12/19 04:27:14;;;;;;;;;17.00;15.25;;;;;7.53;69.41;102239.78;4940952;28;73862;-69
2023/12/19 04:29:40;;;;;;;;;22.50;17.00;;;;;7.50;69.41;102230.19;4922287;28;72958;-69
2023/12/19 04:32:05;;;;;;;;;22.75;17.00;;;;;7.44;69.37;102256.19;4939276;28;67324;-69
2023/12/19 04:34:31;;;;;;;;;20.00;14.50;;;;;7.45;69.25;102259.66;4941562;28;45361;-69
2023/12/19 04:36:56;;;;;;;;;21.25;14.75;;;;;7.44;69.30;102244.88;4938446;28;68098;-69
2023/12/19 04:39:21;;;;;;;;;24.00;17.00;;;;;7.38;69.56;102238.75;4947553;28;70885;-70
2023/12/19 04:41:47;;;;;;;;;23.50;15.00;;;;;7.35;69.33;102241.31;4939093;28;64400;-70
2023/12/19 04:44:12;;;;;;;;;21.75;15.75;;;;;7.35;69.65;102245.69;4940263;28;45496;-71
2023/12/19 04:46:38;;;;;;;;;21.25;16.75;;;;;7.39;69.66;102252.66;4939826;28;74579;-70
2023/12/19 04:49:03;;;;;;;;;28.50;18.50;;;;;7.39;70.16;102256.13;4939768;28;45562;-70
2023/12/19 04:51:28;;;;;;;;;20.75;15.75;;;;;7.38;69.70;102241.38;4939329;28;56312;-70
2023/12/19 04:53:53;;;;;;;;;21.00;15.50;;;;;7.45;69.72;102251.84;4938450;28;68587;-70
2023/12/19 04:56:19;;;;;;;;;21.75;16.75;;;;;7.47;69.77;102243.19;4941214;28;65785;-68
2023/12/19 04:58:46;;;;;;;;;22.50;18.50;;;;;7.50;69.65;102243.19;4939428;28;64181;-71
2023/12/19 05:01:11;;;;;;;;;20.75;16.75;;;;;7.54;69.68;102234.59;4938665;28;45307;-70
2023/12/19 05:03:39;;;;;;;;;21.75;17.25;;;;;7.57;69.77;102241.53;4937671;28;45477;-70
2023/12/19 05:06:08;;;;;;;;;21.50;16.00;;;;;7.59;69.70;102242.44;4939713;28;46238;-71
2023/12/19 05:08:34;;;;;;;;;23.00;18.25;;;;;7.63;69.68;102231.16;4939677;28;46060;-68
2023/12/19 05:10:59;;;;;;;;;23.50;16.25;;;;;7.63;69.40;102228.56;4939075;28;45485;-68
2023/12/19 05:13:26;;;;;;;;;22.25;14.25;;;;;7.64;69.41;102227.72;4940468;28;73091;-69
2023/12/19 05:15:51;;;;;;;;;24.75;16.75;;;;;7.65;69.47;102226.88;4941545;28;45499;-68
2023/12/19 05:18:18;;;;;;;;;18.00;15.50;;;;;7.67;69.53;102234.69;4928462;28;72533;-68
2023/12/19 05:20:44;;;;;;;;;23.00;17.00;;;;;7.67;69.52;102225.16;4953390;28;45238;-68
2023/12/19 05:23:10;;;;;;;;;14.50;11.25;;;;;7.68;69.57;102226.00;4940383;28;45823;-68
2023/12/19 05:25:35;;;;;;;;;22.50;16.75;;;;;7.71;69.51;102226.91;4923123;28;72718;-71
2023/12/19 05:28:00;;;;;;;;;18.00;16.25;;;;;7.73;69.42;102225.19;4940509;28;72748;-71
2023/12/19 05:30:26;;;;;;;;;22.25;15.75;;;;;7.75;69.55;102220.84;4939043;28;68130;-71
2023/12/19 05:32:51;;;;;;;;;19.25;15.75;;;;;7.78;69.28;102226.09;4939391;28;73161;-71
2023/12/19 05:35:16;;;;;;;;;18.50;15.50;;;;;7.78;69.59;102218.28;4939123;28;47097;-71
2023/12/19 05:37:42;;;;;;;;;22.50;18.50;;;;;7.79;69.53;102214.84;4929381;28;73170;-71
2023/12/19 05:40:08;;;;;;;;;26.75;18.00;;;;;7.83;69.52;102201.84;4926068;28;45418;-71
2023/12/19 05:42:35;;;;;;;;;23.50;17.50;;;;;7.83;69.47;102207.91;4941195;28;45583;-68
2023/12/19 05:45:03;;;;;;;;;24.25;15.75;;;;;7.85;69.36;102205.31;4938530;28;48031;-68
2023/12/19 05:47:28;;;;;;;;;22.25;16.00;;;;;7.86;69.37;102225.28;4937837;28;45596;-68
2023/12/19 05:49:53;;;;;;;;;22.00;15.75;;;;;7.85;69.58;102226.16;4957733;28;45788;-68
2023/12/19 05:52:19;;;;;;;;;19.75;16.00;;;;;7.89;69.48;102231.41;4948902;28;58944;-70
2023/12/19 05:54:44;;;;;;;;;21.50;18.50;;;;;7.89;69.51;102225.31;4940212;28;68897;-70
2023/12/19 05:57:09;;;;;;;;;17.50;13.75;;;;;7.89;69.23;102234.00;4938630;28;73117;-69
2023/12/19 05:59:35;;;;;;;;;23.25;15.00;;;;;7.90;69.48;102232.28;4938485;28;45265;-71
2023/12/19 06:02:00;;;;;;;;;18.00;15.50;;;;;7.91;69.33;102211.44;4938725;28;49969;-71
2023/12/19 06:04:25;;;;;;;;;18.75;17.75;;;;;7.92;69.36;102226.22;4938829;28;74410;-69
2023/12/19 06:06:51;;;;;;;;;21.75;17.50;;;;;7.94;69.58;102223.63;4938100;28;54777;-71
2023/12/19 06:09:16;;;;;;;;;22.75;16.00;;;;;7.97;69.41;102221.91;4940018;28;45433;-71
2023/12/19 06:11:42;;;;;;;;;19.75;13.75;;;;;7.98;69.47;102212.34;4963801;28;65505;-71
2023/12/19 06:14:07;;;;;;;;;18.25;16.00;;;;;8.03;69.46;102207.19;4938837;28;74896;-71
2023/12/19 06:16:33;;;;;;;;;29.75;18.00;;;;;8.06;69.58;102204.59;4921094;28;46062;-71
2023/12/19 06:18:58;;;;;;;;;20.75;15.75;;;;;8.08;69.50;102214.16;4921175;28;54629;-71
2023/12/19 06:21:23;;;;;;;;;23.00;15.00;;;;;8.11;69.49;102216.81;4963808;28;45416;-71
2023/12/19 06:23:49;;;;;;;;;17.00;14.00;;;;;8.12;69.47;102217.69;4943504;28;55950;-71
2023/12/19 06:26:14;;;;;;;;;16.50;15.00;;;;;8.11;69.21;102228.94;4937196;28;45368;-71
2023/12/19 06:28:40;;;;;;;;;22.25;16.00;;;;;8.10;69.41;102235.03;4945638;28;59987;-69
2023/12/19 06:31:05;;;;;;;;;17.25;12.25;;;;;8.10;69.63;102232.44;4937019;28;72873;-69
2023/12/19 06:33:31;;;;;;;;;20.50;13.75;;;;;8.10;69.53;102230.69;4958145;28;46216;-70
2023/12/19 06:35:56;;;;;;;;;16.25;14.25;;;;;8.09;69.42;102226.38;4936653;28;45567;-70
2023/12/19 06:38:22;;;;;;;;;27.25;15.25;;;;;8.08;69.47;102222.00;4936603;28;65135;-73
2023/12/19 06:40:47;;;;;;;;;19.25;14.75;;;;;8.07;69.36;102220.25;4936474;28;73484;-70
2023/12/19 06:43:13;;;;;;;;;17.00;15.75;;;;;8.06;69.34;102225.47;4938612;28;45491;-68
2023/12/19 06:45:38;;;;;;;;;16.00;13.00;;;;;8.07;69.44;102219.38;4917622;28;45491;-74
2023/12/19 06:48:04;;;;;;;;;17.25;14.00;;;;;8.04;69.48;102215.03;4951872;28;46096;-69
2023/12/19 06:50:29;;;;;;;;;21.50;15.50;;;;;8.03;69.55;102221.09;4939163;28;45441;-69
2023/12/19 06:52:55;;;;;;;;;44.50;34.00;;;;;8.04;69.54;102207.19;4932039;28;46040;-69
2023/12/19 06:55:21;;;;;;;;;32.00;25.25;;;;;8.01;69.27;102208.91;4920710;28;45685;-70
2023/12/19 06:57:46;;;;;;;;;19.00;16.75;;;;;8.00;69.42;102205.41;4942166;28;45582;-74
2023/12/19 07:00:12;;;;;;;;;17.00;14.75;;;;;8.02;69.26;102200.22;4942669;28;45420;-74
2023/12/19 07:02:37;;;;;;;;;19.00;12.00;;;;;8.02;69.27;102203.72;4943600;28;46120;-69
2023/12/19 07:05:03;;;;;;;;;22.50;16.25;;;;;8.02;69.25;102197.59;4942390;28;45488;-71
2023/12/19 07:07:29;;;;;;;;;22.75;17.50;;;;;8.01;69.22;102186.31;4946553;28;45478;-75
2023/12/19 07:09:54;;;;;;;;;27.75;18.75;;;;;8.01;69.45;102183.72;4941771;28;69792;-73
2023/12/19 07:12:20;;;;;;;;;21.00;16.00;;;;;7.99;69.01;102178.47;4943513;28;68694;-71
2023/12/19 07:14:45;;;;;;;;;24.75;16.50;;;;;7.96;69.26;102173.25;4941795;28;45534;-75
2023/12/19 07:17:11;;;;;;;;;25.75;19.00;;;;;7.95;69.19;102170.63;4924815;28;55711;-75
2023/12/19 07:19:36;;;;;;;;;28.50;20.25;;;;;7.96;69.13;102161.94;4943197;28;45377;-75
2023/12/19 07:22:02;;;;;;;;;16.75;13.75;;;;;7.95;69.07;102153.25;4942470;28;73964;-74
2023/12/19 07:24:27;;;;;;;;;15.75;14.50;;;;;7.95;69.20;102145.44;4941075;28;45584;-75
2023/12/19 07:26:55;;;;;;;;;18.50;17.25;;;;;7.95;69.05;102140.22;4960603;28;45484;-72
2023/12/19 07:29:21;;;;;;;;;21.50;13.75;;;;;7.94;69.29;102138.47;4926561;28;45601;-72
2023/12/19 07:31:46;;;;;;;;;20.00;14.25;;;;;7.95;69.17;102142.84;4946446;28;46532;-72
2023/12/19 07:34:11;;;;;;;;;22.50;16.25;;;;;7.96;69.27;102149.78;4940651;28;69276;-77
2023/12/19 07:36:37;;;;;;;;;18.75;13.00;;;;;7.96;69.16;102148.91;4943164;28;45400;-74
2023/12/19 07:39:04;;;;;;;;;18.50;15.50;;;;;7.97;69.14;102146.31;4941402;28;45501;-74
2023/12/19 07:41:31;;;;;;;;;24.00;16.00;;;;;7.99;69.21;102148.94;4950167;28;46389;-74
2023/12/19 07:43:57;;;;;;;;;19.25;15.25;;;;;8.01;68.99;102157.63;4933975;28;45904;-75
2023/12/19 07:46:22;;;;;;;;;23.25;17.00;;;;;8.01;69.06;102148.97;4944148;28;45478;-76
2023/12/19 07:48:48;;;;;;;;;19.50;13.75;;;;;7.99;69.08;102146.34;4938917;28;45489;-72
2023/12/19 07:51:31;;;;;;;;;24.25;16.75;;;;;8.00;68.94;102145.44;4965054;28;45424;-74
2023/12/19 07:53:57;;;;;;;;;18.75;16.00;;;;;8.00;68.92;102145.44;4947654;28;46402;-74
2023/12/19 07:56:22;;;;;;;;;23.00;16.25;;;;;8.00;69.02;102137.63;4953467;28;45496;-75
2023/12/19 07:58:48;;;;;;;;;16.25;15.00;;;;;7.96;69.04;102136.75;4961588;28;45668;-76
2023/12/19 08:01:14;;;;;;;;;22.75;15.50;;;;;8.01;69.15;102136.78;4950557;28;46343;-76
2023/12/19 08:03:41;;;;;;;;;23.25;14.50;;;;;8.02;69.23;102127.22;4950165;28;46397;-77
2023/12/19 08:06:06;;;;;;;;;18.75;15.00;;;;;8.03;68.96;102121.16;4946321;28;45495;-74
2023/12/19 08:08:32;;;;;;;;;22.50;16.50;;;;;8.02;69.17;102125.50;4936968;28;64207;-71
2023/12/19 08:10:57;;;;;;;;;18.25;15.00;;;;;8.03;69.01;102118.56;4923364;28;46696;-78
2023/12/19 08:13:23;;;;;;;;;19.00;13.75;;;;;8.03;69.01;102110.72;4940284;28;47090;-77
2023/12/19 08:15:49;;;;;;;;;18.75;13.00;;;;;8.01;69.11;102109.84;4964780;28;45535;-79
2023/12/19 08:18:14;;;;;;;;;18.00;13.25;;;;;8.03;68.79;102113.34;4942231;28;45488;-78
2023/12/19 08:20:40;;;;;;;;;24.00;15.75;;;;;8.04;69.08;102113.34;4948721;28;45475;-78
2023/12/19 08:23:07;;;;;;;;;21.75;17.50;;;;;8.08;69.14;102115.09;4945504;28;46004;-77
2023/12/19 08:25:32;;;;;;;;;23.25;14.75;;;;;8.11;69.09;102114.22;4944761;28;45460;-79
2023/12/19 08:27:57;;;;;;;;;19.50;15.75;;;;;8.13;69.02;102120.34;4942956;28;73222;-78
2023/12/19 08:30:27;;;;;;;;;21.25;13.75;;;;;8.15;69.07;102137.72;4947260;28;53117;-78
2023/12/19 08:32:52;;;;;;;;;21.00;15.25;;;;;8.15;68.95;102142.94;4945580;28;45864;-77
2023/12/19 08:35:18;;;;;;;;;23.50;16.00;;;;;8.16;69.18;102142.09;4931895;28;45695;-78
2023/12/19 08:37:43;;;;;;;;;15.00;11.50;;;;;8.18;68.89;102129.06;4944684;28;45425;-79
2023/12/19 08:40:09;;;;;;;;;20.25;11.25;;;;;8.23;68.96;102123.88;4941514;28;51146;-80
2023/12/19 08:42:34;;;;;;;;;19.25;10.75;;;;;8.25;68.90;102117.81;4926406;28;45328;-79
2023/12/19 08:45:00;;;;;;;;;20.75;17.75;;;;;8.24;68.83;102115.19;4950924;28;45334;-78
2023/12/19 08:47:25;;;;;;;;;23.00;15.00;;;;;8.27;68.94;102134.31;4953406;28;45251;-79
2023/12/19 08:49:54;;;;;;;;;18.75;14.50;;;;;8.27;68.94;102130.81;4952853;28;58568;-79
2023/12/19 08:52:21;;;;;;;;;26.00;14.25;;;;;8.28;68.83;102133.44;4972018;28;45377;-78
2023/12/19 08:54:46;;;;;;;;;22.00;15.50;;;;;8.26;68.97;102116.94;4949034;28;45436;-80
2023/12/19 08:57:12;;;;;;;;;16.00;15.25;;;;;8.28;69.15;102116.94;4945864;28;45500;-77
2023/12/19 08:59:38;;;;;;;;;18.75;15.25;;;;;8.31;69.07;102119.56;4949531;28;47305;-78
2023/12/19 09:02:04;;;;;;;;;21.25;15.25;;;;;8.28;68.91;102112.59;4955847;28;72375;-79
2023/12/19 09:04:30;;;;;;;;;22.50;17.00;;;;;8.31;68.94;102119.56;4943243;28;45295;-79
2023/12/19 09:06:55;;;;;;;;;24.50;15.75;;;;;8.32;68.96;102101.31;4940023;28;45527;-77
2023/12/19 09:09:20;;;;;;;;;22.75;15.50;;;;;8.35;68.78;102093.50;4931905;28;73378;-78
2023/12/19 09:11:46;;;;;;;;;20.50;16.75;;;;;8.34;68.92;102078.72;4945654;28;45373;-80
2023/12/19 09:14:11;;;;;;;;;16.50;12.25;;;;;8.38;69.29;102071.78;4943140;28;45578;-77
2023/12/19 09:16:37;;;;;;;;;21.50;16.00;;;;;8.43;69.00;102080.53;4923157;28;45574;-77
2023/12/19 09:19:03;;;;;;;;;18.00;17.00;;;;;8.50;68.66;102069.25;4955774;28;45499;-78
2023/12/19 09:21:28;;;;;;;;;18.75;13.00;;;;;8.53;68.55;102065.75;4948917;28;47451;-78
2023/12/19 09:23:53;;;;;;;;;26.00;17.00;;;;;8.56;68.47;102071.00;4942847;28;45395;-78
2023/12/19 09:26:19;;;;;;;;;20.00;15.75;;;;;8.59;68.34;102067.50;4942258;28;45208;-78
2023/12/19 09:28:45;;;;;;;;;16.75;12.00;;;;;8.60;68.77;102082.31;4931174;28;46971;-78
2023/12/19 09:31:10;;;;;;;;;18.50;14.50;;;;;8.61;68.21;102082.31;4943365;28;73895;-78
2023/12/19 09:33:39;;;;;;;;;23.25;16.25;;;;;8.61;68.28;102082.31;4926313;28;45485;-77
2023/12/19 09:36:07;;;;;;;;;24.00;16.75;;;;;8.61;68.56;102084.94;4926204;28;45527;-78
2023/12/19 09:38:32;;;;;;;;;14.00;14.00;;;;;8.63;68.24;102088.41;4941276;28;46678;-77
2023/12/19 09:40:57;;;;;;;;;19.75;14.75;;;;;8.67;68.30;102091.91;4941461;28;44713;-78
2023/12/19 09:43:23;;;;;;;;;19.25;16.00;;;;;8.67;68.12;102074.50;4940113;28;66625;-78
2023/12/19 09:45:50;;;;;;;;;17.25;12.75;;;;;8.74;68.09;102088.44;4943405;28;45319;-78
2023/12/19 09:48:18;;;;;;;;;23.75;13.25;;;;;8.78;68.09;102078.88;4945128;28;46184;-79
2023/12/19 09:50:45;;;;;;;;;23.00;14.00;;;;;8.80;67.82;102079.75;4946042;28;45781;-79
2023/12/19 09:53:14;;;;;;;;;22.75;16.75;;;;;8.83;67.96;102077.16;4944754;28;68002;-78
2023/12/19 09:55:43;;;;;;;;;18.00;15.25;;;;;8.89;68.17;102092.84;4960948;28;44888;-78
2023/12/19 09:58:09;;;;;;;;;16.75;12.50;;;;;8.95;67.91;102087.59;4944761;28;47012;-78
2023/12/19 10:00:39;;;;;;;;;17.75;11.00;;;;;8.97;67.75;102080.66;4942993;28;45363;-79
2023/12/19 10:03:04;;;;;;;;;19.00;13.75;;;;;8.99;67.34;102075.44;4926092;28;45275;-79
2023/12/19 10:05:29;;;;;;;;;18.25;13.75;;;;;8.97;67.27;102066.72;4957745;28;46781;-78
2023/12/19 10:07:57;;;;;;;;;18.50;16.25;;;;;8.96;67.66;102080.63;4938008;28;74475;-77
2023/12/19 10:10:28;;;;;;;;;19.00;15.00;;;;;8.93;67.67;102064.09;4955750;28;45393;-78
2023/12/19 10:12:53;;;;;;;;;15.25;12.50;;;;;8.95;67.89;102060.63;4925623;28;45415;-78
2023/12/19 10:15:19;;;;;;;;;18.25;12.75;;;;;8.96;67.78;102065.88;4933469;28;45401;-78
2023/12/19 10:18:05;;;;;;;;;18.75;13.75;;;;;9.00;67.67;102054.53;4939740;28;73052;-78
2023/12/19 10:20:31;;;;;;;;;21.75;15.75;;;;;9.03;67.73;102053.66;4942646;28;45381;-78
2023/12/19 10:23:04;;;;;;;;;19.75;11.75;;;;;9.12;67.56;102041.50;4940775;28;45406;-77
2023/12/19 10:25:31;;;;;;;;;16.25;11.50;;;;;9.17;67.51;102033.66;4940420;28;45194;-78
2023/12/19 10:28:09;;;;;;;;;19.00;14.50;;;;;9.22;67.39;102023.19;4943826;28;45553;-77
2023/12/19 10:30:36;;;;;;;;;20.50;14.00;;;;;9.27;67.19;102018.84;4942209;28;45366;-78
2023/12/19 10:33:03;;;;;;;;;21.25;16.25;;;;;9.33;67.27;102011.03;4942032;28;45185;-78
2023/12/19 10:35:36;;;;;;;;;17.25;15.00;;;;;9.38;67.25;101998.78;4943987;28;45179;-77
2023/12/19 10:38:01;;;;;;;;;25.00;17.25;;;;;9.39;67.02;101997.94;4946252;28;46454;-77
2023/12/19 10:40:26;;;;;;;;;20.75;15.00;;;;;9.44;66.96;102000.56;4943649;28;58059;-79
2023/12/19 10:42:56;;;;;;;;;17.50;12.75;;;;;9.47;66.92;101990.06;4943714;28;58196;-77
2023/12/19 10:45:21;;;;;;;;;17.25;12.00;;;;;9.51;66.99;101991.81;4946190;28;45577;-76
2023/12/19 10:47:47;;;;;;;;;17.50;14.00;;;;;9.56;67.00;101995.31;4930198;28;47540;-77
2023/12/19 10:50:12;;;;;;;;;15.50;14.50;;;;;9.55;66.64;102003.13;4947346;28;49172;-78
2023/12/19 10:52:40;;;;;;;;;19.50;15.50;;;;;9.50;66.80;102008.38;4948634;28;45750;-78
2023/12/19 10:55:11;;;;;;;;;23.50;17.50;;;;;9.47;66.67;102000.53;4946766;28;45324;-77
2023/12/19 10:57:37;;;;;;;;;12.50;11.00;;;;;9.46;66.94;101989.22;4945240;28;48226;-77
2023/12/19 11:00:13;;;;;;;;;19.25;13.00;;;;;9.46;66.60;101988.34;4943440;28;45415;-77
2023/12/19 11:03:06;;;;;;;;;18.75;16.50;;;;;9.44;67.00;101967.44;4945117;28;45405;-78
2023/12/19 11:05:41;;;;;;;;;20.00;15.75;;;;;9.41;66.98;101964.84;4943829;28;45637;-77
2023/12/19 11:08:15;;;;;;;;;19.25;12.75;;;;;9.40;67.14;101957.88;4939002;28;45438;-77
2023/12/19 11:10:41;;;;;;;;;19.75;13.75;;;;;9.42;67.03;101965.69;4944529;28;45463;-77